Time;durP1;ratioP1;P1;durP2;ratioP2;P2;SDS_P1;SDS_P2;PMS_P1;PMS_P2;Temp;Humidity;BMP_temperature;BMP_pressure;BME280_temperature;BME280_humidity;BME280_pressure;Samples;Min_cycle;Max_cycle;Signal;HPM_P1;HPM_P2
2022/06/08 00:01:23;;;;;;;3.42;2.00;;;23.60;76.70;;;;;;6275857;22;20004;-76
2022/06/08 00:03:58;;;;;;;1.75;1.52;;;23.60;76.20;;;;;;6274781;22;20007;-77
2022/06/08 00:06:24;;;;;;;2.25;1.55;;;23.60;76.00;;;;;;6275644;22;20007;-76
2022/06/08 00:08:50;;;;;;;5.03;1.83;;;23.60;76.00;;;;;;6275328;22;20000;-77
2022/06/08 00:11:17;;;;;;;2.88;1.52;;;23.60;76.20;;;;;;6275593;22;20121;-76
2022/06/08 00:13:44;;;;;;;4.47;1.73;;;23.60;76.10;;;;;;6275746;22;19992;-76
2022/06/08 00:16:11;;;;;;;3.45;1.50;;;23.60;76.00;;;;;;6275414;22;20078;-77
2022/06/08 00:18:39;;;;;;;2.88;1.23;;;23.50;76.20;;;;;;6248150;22;20082;-77
2022/06/08 00:21:05;;;;;;;1.83;1.50;;;23.50;76.20;;;;;;6248895;22;20000;-76
2022/06/08 00:23:31;;;;;;;2.40;1.25;;;23.50;75.80;;;;;;6276095;22;19999;-76
2022/06/08 00:25:57;;;;;;;2.03;1.38;;;23.50;75.80;;;;;;6275323;22;20031;-76
2022/06/08 00:28:23;;;;;;;4.88;1.80;;;23.50;75.80;;;;;;6274926;22;20035;-77
2022/06/08 00:30:48;;;;;;;1.98;1.48;;;23.40;77.30;;;;;;6275943;22;20426;-76
2022/06/08 00:33:14;;;;;;;2.03;1.67;;;23.30;76.60;;;;;;6275248;22;20418;-76
2022/06/08 00:35:40;;;;;;;2.17;1.52;;;23.30;76.80;;;;;;6275685;22;20000;-76
2022/06/08 00:38:06;;;;;;;1.95;1.60;;;23.30;77.00;;;;;;6275180;22;20077;-76
2022/06/08 00:40:47;;;;;;;2.22;1.40;;;23.30;76.90;;;;;;6275494;22;19996;-75
2022/06/08 00:43:13;;;;;;;2.13;1.10;;;23.30;76.90;;;;;;6248394;22;20004;-76
2022/06/08 00:45:39;;;;;;;1.70;1.20;;;23.30;77.30;;;;;;6248068;22;19999;-75
2022/06/08 00:48:06;;;;;;;1.95;1.67;;;23.40;77.10;;;;;;6275672;22;20045;-76
2022/06/08 00:50:40;;;;;;;1.63;1.35;;;23.30;77.10;;;;;;6276046;22;20287;-76
2022/06/08 00:53:07;;;;;;;1.65;1.50;;;23.30;77.20;;;;;;6277245;22;20007;-77
2022/06/08 00:55:38;;;;;;;2.05;1.85;;;23.30;77.20;;;;;;6278004;22;19999;-76
2022/06/08 00:58:14;;;;;;;2.92;1.90;;;23.30;77.40;;;;;;6250093;22;20444;-76
2022/06/08 01:00:41;;;;;;;1.98;1.60;;;23.30;77.40;;;;;;6277683;22;20449;-76
2022/06/08 01:03:09;;;;;;;2.90;1.50;;;23.20;77.40;;;;;;6277930;22;20003;-76
2022/06/08 01:05:34;;;;;;;3.08;1.50;;;23.20;77.30;;;;;;6277316;22;20000;-77
2022/06/08 01:08:44;;;;;;;2.15;1.60;;;23.20;77.10;;;;;;6277215;22;20057;-76
2022/06/08 01:11:16;;;;;;;1.50;1.10;;;23.20;76.60;;;;;;6276113;22;19999;-76
2022/06/08 01:13:44;;;;;;;1.95;1.10;;;23.20;76.40;;;;;;6277647;22;20219;-77
2022/06/08 01:16:11;;;;;;;2.70;0.95;;;23.20;75.90;;;;;;6275956;22;20010;-78
2022/06/08 01:18:38;;;;;;;1.40;1.17;;;23.20;75.80;;;;;;6276859;22;20023;-78
2022/06/08 01:21:21;;;;;;;2.92;1.10;;;23.20;75.70;;;;;;6277419;22;20007;-78
2022/06/08 01:24:13;;;;;;;0.90;0.80;;;23.20;74.90;;;;;;6276686;22;20038;-78
2022/06/08 01:27:00;;;;;;;3.00;0.90;;;23.20;74.30;;;;;;6269188;22;20003;-77
2022/06/08 01:29:29;;;;;;;1.15;0.70;;;23.20;73.80;;;;;;6276928;22;20000;-77
2022/06/08 01:31:58;;;;;;;0.90;0.70;;;23.20;73.30;;;;;;6277214;22;19992;-78
2022/06/08 01:34:27;;;;;;;0.90;0.70;;;23.20;72.70;;;;;;6277214;22;20034;-78
2022/06/08 01:37:24;;;;;;;0.80;0.50;;;23.10;72.40;;;;;;6276898;22;20402;-77
2022/06/08 01:40:16;;;;;;;1.20;0.43;;;23.10;72.00;;;;;;6277224;22;20004;-77
2022/06/08 01:42:44;;;;;;;0.95;0.50;;;23.10;71.10;;;;;;6256813;22;20388;-78
2022/06/08 01:45:40;;;;;;;1.25;0.40;;;23.10;71.10;;;;;;6277100;22;20418;-78
2022/06/08 01:48:33;;;;;;;0.70;0.40;;;23.00;70.60;;;;;;6276800;22;20006;-78
2022/06/08 01:51:33;;;;;;;0.77;0.60;;;23.10;70.50;;;;;;6277387;22;20004;-78
2022/06/08 01:54:13;;;;;;;0.90;0.40;;;23.00;70.00;;;;;;6277057;22;20019;-78
2022/06/08 01:57:13;;;;;;;0.83;0.40;;;23.00;69.50;;;;;;6249631;22;20003;-77
2022/06/08 02:00:00;;;;;;;0.57;0.30;;;23.00;69.80;;;;;;6277678;22;20432;-78
2022/06/08 02:02:38;;;;;;;1.27;0.57;;;23.00;69.70;;;;;;6276940;22;20011;-77
2022/06/08 02:05:20;;;;;;;1.52;0.60;;;23.00;69.50;;;;;;6277168;22;20061;-79
2022/06/08 02:08:05;;;;;;;1.83;0.47;;;23.00;69.90;;;;;;6249298;22;20114;-78
2022/06/08 02:10:39;;;;;;;0.85;0.60;;;22.90;70.10;;;;;;6277073;22;20003;-78
2022/06/08 02:13:22;;;;;;;0.75;0.52;;;22.90;70.20;;;;;;6276583;22;20490;-77
2022/06/08 02:15:52;;;;;;;0.30;0.30;;;22.90;70.40;;;;;;6276820;22;20113;-75
2022/06/08 02:18:30;;;;;;;2.08;0.30;;;22.80;70.40;;;;;;6276352;22;20308;-75
2022/06/08 02:21:15;;;;;;;0.80;0.40;;;22.80;70.30;;;;;;6276563;22;20026;-76
2022/06/08 02:24:04;;;;;;;1.05;0.47;;;22.80;70.00;;;;;;6277312;22;20000;-76
2022/06/08 02:26:47;;;;;;;2.10;0.50;;;22.70;70.00;;;;;;6276318;22;20139;-79
2022/06/08 02:29:23;;;;;;;2.08;0.30;;;22.70;70.30;;;;;;6275101;22;20004;-79
2022/06/08 02:32:01;;;;;;;0.80;0.50;;;22.70;70.30;;;;;;6276408;22;20072;-79
2022/06/08 02:34:39;;;;;;;1.33;0.55;;;22.70;70.30;;;;;;6276532;22;20263;-79
2022/06/08 02:37:13;;;;;;;0.45;0.40;;;22.70;70.30;;;;;;6276085;22;20004;-79
2022/06/08 02:39:44;;;;;;;1.15;0.52;;;22.70;70.30;;;;;;6277154;22;20124;-77
2022/06/08 02:42:19;;;;;;;0.40;0.40;;;22.70;70.20;;;;;;6276481;22;20012;-77
2022/06/08 02:44:50;;;;;;;0.70;0.50;;;22.70;70.00;;;;;;6276634;22;20057;-77
2022/06/08 02:47:18;;;;;;;0.68;0.43;;;22.80;70.10;;;;;;6275338;22;20379;-78
2022/06/08 02:49:44;;;;;;;0.32;0.30;;;22.80;70.00;;;;;;6276474;22;20034;-77
2022/06/08 02:52:23;;;;;;;0.20;0.20;;;22.70;70.00;;;;;;6276131;22;20000;-77
2022/06/08 02:54:50;;;;;;;0.98;0.30;;;22.70;70.20;;;;;;6276365;22;20003;-78
2022/06/08 02:58:01;;;;;;;0.88;0.30;;;22.50;70.40;;;;;;6274810;22;20000;-79
2022/06/08 03:00:41;;;;;;;0.60;0.52;;;22.50;70.60;;;;;;6240654;22;20062;-78
2022/06/08 03:03:19;;;;;;;0.55;0.40;;;22.50;71.00;;;;;;6276607;22;20000;-78
2022/06/08 03:05:57;;;;;;;0.30;0.30;;;22.50;70.90;;;;;;6276674;22;20406;-78
2022/06/08 03:08:26;;;;;;;0.40;0.40;;;22.50;70.90;;;;;;6249262;22;20398;-78
2022/06/08 03:10:54;;;;;;;0.65;0.40;;;22.50;71.00;;;;;;6276581;22;20069;-78
2022/06/08 03:13:49;;;;;;;0.32;0.25;;;22.50;71.10;;;;;;6276295;22;20003;-78
2022/06/08 03:16:58;;;;;;;0.50;0.40;;;22.50;71.20;;;;;;6275950;22;20114;-77
2022/06/08 03:19:27;;;;;;;0.82;0.60;;;22.50;71.40;;;;;;6123235;23;20044;-78
2022/06/08 03:21:54;;;;;;;1.20;0.50;;;22.50;71.10;;;;;;6124137;23;20428;-78
2022/06/08 03:24:21;;;;;;;1.27;0.50;;;22.50;71.40;;;;;;6204477;22;20061;-79
2022/06/08 03:26:52;;;;;;;0.77;0.45;;;22.50;71.50;;;;;;6276616;22;20000;-79
2022/06/08 03:29:18;;;;;;;1.42;0.77;;;22.50;71.50;;;;;;6275414;22;20418;-78
2022/06/08 03:31:44;;;;;;;1.95;0.77;;;22.60;71.50;;;;;;6276330;22;20000;-78
2022/06/08 03:34:10;;;;;;;0.80;0.65;;;22.50;71.50;;;;;;6275671;22;20425;-78
2022/06/08 03:36:36;;;;;;;1.00;0.50;;;22.50;71.60;;;;;;6275791;22;20013;-76
2022/06/08 03:39:03;;;;;;;0.93;0.47;;;22.50;71.70;;;;;;6275522;22;20351;-76
2022/06/08 03:41:29;;;;;;;0.98;0.40;;;22.50;72.10;;;;;;6275655;22;20064;-76
2022/06/08 03:43:55;;;;;;;0.73;0.35;;;22.40;72.10;;;;;;6275121;22;19999;-77
2022/06/08 03:46:21;;;;;;;1.50;0.52;;;22.30;72.20;;;;;;6275689;22;20000;-77
2022/06/08 03:48:47;;;;;;;1.27;0.50;;;22.10;72.20;;;;;;6276029;22;20004;-76
2022/06/08 03:51:16;;;;;;;1.15;0.60;;;22.20;72.10;;;;;;6276017;22;20004;-77
2022/06/08 03:53:59;;;;;;;1.40;0.60;;;21.90;72.60;;;;;;6276071;22;20012;-79
2022/06/08 03:56:27;;;;;;;2.13;0.73;;;21.80;72.80;;;;;;6275817;22;20333;-79
2022/06/08 03:58:54;;;;;;;0.73;0.60;;;21.50;73.80;;;;;;6276417;22;20003;-77
2022/06/08 04:01:20;;;;;;;1.85;0.60;;;21.40;74.50;;;;;;6276607;22;20023;-80
2022/06/08 04:03:47;;;;;;;1.48;0.95;;;21.40;74.60;;;;;;6276330;22;20415;-79
2022/06/08 04:06:13;;;;;;;4.18;0.90;;;21.30;75.00;;;;;;6276281;22;20010;-79
2022/06/08 04:08:39;;;;;;;1.23;0.80;;;21.30;75.00;;;;;;6275806;22;20004;-78
2022/06/08 04:11:05;;;;;;;3.13;1.00;;;21.30;75.00;;;;;;6275762;22;20000;-78
2022/06/08 04:13:31;;;;;;;3.67;1.40;;;21.30;75.40;;;;;;6275873;22;20004;-78
2022/06/08 04:15:56;;;;;;;1.55;1.10;;;21.20;75.60;;;;;;6274700;22;20380;-76
2022/06/08 04:18:23;;;;;;;1.05;0.90;;;20.90;76.50;;;;;;6275941;22;20003;-77
2022/06/08 04:20:55;;;;;;;1.73;0.90;;;20.90;76.20;;;;;;6275067;22;20000;-75
2022/06/08 04:23:23;;;;;;;1.63;1.08;;;21.00;76.00;;;;;;6274432;22;20319;-76
2022/06/08 04:25:52;;;;;;;2.25;0.95;;;21.00;76.70;;;;;;6275033;22;20045;-77
2022/06/08 04:28:17;;;;;;;8.48;1.52;;;21.00;76.70;;;;;;6279439;22;20406;-77
2022/06/08 04:30:44;;;;;;;3.55;1.23;;;20.90;76.70;;;;;;6279036;22;20002;-77
2022/06/08 04:33:10;;;;;;;2.90;1.10;;;20.80;77.40;;;;;;6278903;22;20000;-77
2022/06/08 04:35:36;;;;;;;5.65;1.77;;;20.60;77.80;;;;;;6278258;22;20000;-76
2022/06/08 04:38:02;;;;;;;2.55;0.70;;;20.70;77.70;;;;;;6278391;22;20011;-78
2022/06/08 04:40:29;;;;;;;2.67;0.90;;;20.80;77.40;;;;;;6277840;22;19995;-79
2022/06/08 04:42:55;;;;;;;1.20;0.75;;;20.80;77.40;;;;;;6277923;22;20426;-76
2022/06/08 04:45:21;;;;;;;2.63;0.70;;;21.00;76.70;;;;;;6276697;22;20049;-79
2022/06/08 04:47:47;;;;;;;3.10;1.35;;;21.10;76.50;;;;;;6277475;22;20007;-76
2022/06/08 04:50:13;;;;;;;3.55;1.00;;;21.20;76.60;;;;;;6277279;22;20007;-75
2022/06/08 04:52:39;;;;;;;0.82;0.73;;;21.20;76.10;;;;;;6275846;22;20008;-76
2022/06/08 04:55:07;;;;;;;2.00;1.10;;;21.20;76.20;;;;;;6277740;22;20000;-75
2022/06/08 04:57:36;;;;;;;3.15;1.17;;;21.20;76.10;;;;;;6278298;22;19999;-76
2022/06/08 05:00:07;;;;;;;1.30;0.90;;;21.30;76.00;;;;;;6278791;22;20078;-75
2022/06/08 05:02:48;;;;;;;3.70;1.50;;;21.30;75.80;;;;;;6278202;22;20007;-78
2022/06/08 05:05:30;;;;;;;2.67;1.45;;;21.30;75.80;;;;;;6278997;22;20000;-79
2022/06/08 05:07:57;;;;;;;1.98;1.02;;;21.10;76.10;;;;;;6277979;22;20422;-75
2022/06/08 05:10:25;;;;;;;2.38;1.10;;;21.20;76.00;;;;;;6278851;22;20531;-84
2022/06/08 05:12:51;;;;;;;1.45;1.02;;;21.10;76.20;;;;;;6251407;22;20012;-76
2022/06/08 05:15:22;;;;;;;2.95;1.20;;;21.20;76.00;;;;;;6279343;22;20010;-75
2022/06/08 05:17:48;;;;;;;1.90;1.20;;;21.00;76.70;;;;;;6277068;22;20408;-76
2022/06/08 05:20:16;;;;;;;1.98;1.35;;;21.10;76.90;;;;;;6278269;22;20000;-78
2022/06/08 05:22:43;;;;;;;2.58;1.40;;;21.00;77.00;;;;;;6278923;22;20064;-75
2022/06/08 05:25:11;;;;;;;1.90;0.98;;;21.10;77.00;;;;;;6251348;22;20006;-75
2022/06/08 05:27:38;;;;;;;1.65;1.13;;;21.30;76.50;;;;;;6250747;22;20004;-76
2022/06/08 05:30:05;;;;;;;1.25;0.80;;;21.30;76.50;;;;;;6278592;22;20018;-76
2022/06/08 05:32:31;;;;;;;1.50;0.95;;;21.40;76.30;;;;;;6251944;22;20007;-76
2022/06/08 05:34:57;;;;;;;2.92;0.95;;;21.40;76.30;;;;;;6279453;22;20066;-76
2022/06/08 05:37:23;;;;;;;1.75;0.68;;;21.40;75.80;;;;;;6278536;22;20120;-76
2022/06/08 05:39:49;;;;;;;1.83;0.70;;;21.50;76.10;;;;;;6277712;22;20003;-76
2022/06/08 05:42:15;;;;;;;2.05;0.50;;;21.60;75.70;;;;;;6277510;22;20012;-76
2022/06/08 05:44:41;;;;;;;1.38;0.60;;;21.70;75.40;;;;;;6277602;22;20425;-77
2022/06/08 05:47:06;;;;;;;2.38;1.13;;;21.80;75.30;;;;;;6276419;22;20011;-76
2022/06/08 05:49:35;;;;;;;1.50;1.00;;;21.80;74.70;;;;;;6277390;22;20018;-76
2022/06/08 05:52:02;;;;;;;2.85;0.80;;;21.60;74.50;;;;;;6277541;22;20003;-76
2022/06/08 05:54:29;;;;;;;2.25;0.60;;;21.70;74.70;;;;;;6277867;22;20007;-76
2022/06/08 05:56:55;;;;;;;0.80;0.60;;;21.70;74.80;;;;;;6276688;22;20056;-76
2022/06/08 05:59:20;;;;;;;1.85;0.70;;;21.80;75.30;;;;;;6277990;22;20034;-77
2022/06/08 06:01:46;;;;;;;1.15;0.77;;;21.90;74.20;;;;;;6250252;22;20000;-77
2022/06/08 06:04:13;;;;;;;3.40;0.85;;;21.90;73.70;;;;;;6277292;22;20030;-78
2022/06/08 06:06:43;;;;;;;3.55;0.75;;;21.90;73.40;;;;;;6276526;22;20075;-79
2022/06/08 06:09:10;;;;;;;0.93;0.50;;;21.80;73.10;;;;;;6277328;22;20004;-77
2022/06/08 06:11:37;;;;;;;2.05;0.50;;;21.90;72.80;;;;;;6277305;22;20000;-77
2022/06/08 06:14:03;;;;;;;1.38;1.02;;;22.00;73.10;;;;;;6277489;22;20642;-75
2022/06/08 06:16:30;;;;;;;0.38;0.38;;;22.00;72.90;;;;;;6276439;22;20008;-77
2022/06/08 06:18:56;;;;;;;0.65;0.50;;;22.10;73.20;;;;;;6276474;22;20000;-76
2022/06/08 06:21:25;;;;;;;2.38;0.52;;;22.10;72.40;;;;;;6274239;22;20410;-77
2022/06/08 06:23:56;;;;;;;1.75;0.80;;;22.30;71.90;;;;;;6271221;22;20081;-77
2022/06/08 06:26:22;;;;;;;1.25;0.68;;;22.10;70.60;;;;;;6273739;22;20094;-86
2022/06/08 06:28:48;;;;;;;0.68;0.50;;;22.10;71.30;;;;;;6271193;22;20814;-76
2022/06/08 06:31:23;;;;;;;2.05;0.30;;;22.20;71.80;;;;;;6275113;22;20010;-78
2022/06/08 06:33:49;;;;;;;0.90;0.30;;;22.30;71.20;;;;;;6267865;22;20419;-77
2022/06/08 06:36:15;;;;;;;0.90;0.50;;;22.40;69.00;;;;;;6273692;22;20011;-77
2022/06/08 06:38:41;;;;;;;0.43;0.20;;;22.40;70.10;;;;;;6247180;22;20007;-77
2022/06/08 06:41:07;;;;;;;2.03;0.50;;;22.50;70.00;;;;;;6275862;22;20507;-76
2022/06/08 06:43:35;;;;;;;0.50;0.50;;;22.60;69.90;;;;;;6275363;22;19995;-77
2022/06/08 06:46:01;;;;;;;2.65;0.45;;;22.60;69.30;;;;;;6247851;22;20008;-77
2022/06/08 06:48:26;;;;;;;3.63;0.50;;;22.40;67.80;;;;;;6273441;22;20079;-76
2022/06/08 06:50:52;;;;;;;0.88;0.35;;;22.40;66.90;;;;;;6275761;22;20023;-76
2022/06/08 06:53:18;;;;;;;5.18;0.63;;;22.40;68.20;;;;;;6249288;22;20004;-76
2022/06/08 06:55:43;;;;;;;0.47;0.20;;;22.60;68.40;;;;;;6248185;22;20004;-76
2022/06/08 06:58:09;;;;;;;0.40;0.30;;;22.60;68.50;;;;;;6276339;22;20000;-76
2022/06/08 07:00:35;;;;;;;0.75;0.32;;;22.70;66.70;;;;;;6276233;22;20317;-76
2022/06/08 07:03:01;;;;;;;1.55;0.50;;;22.80;67.30;;;;;;6275835;22;20011;-76
2022/06/08 07:05:30;;;;;;;1.83;0.47;;;22.80;64.40;;;;;;6248859;22;20007;-77
2022/06/08 07:07:56;;;;;;;0.30;0.30;;;22.90;66.20;;;;;;6274769;22;20363;-78
2022/06/08 07:10:22;;;;;;;0.28;0.22;;;23.00;64.80;;;;;;6275385;22;20006;-78
2022/06/08 07:12:48;;;;;;;0.77;0.30;;;23.00;65.10;;;;;;6275611;22;20000;-78
2022/06/08 07:15:16;;;;;;;1.75;0.43;;;23.10;65.70;;;;;;6275536;22;20064;-78
2022/06/08 07:17:42;;;;;;;0.70;0.45;;;23.20;64.70;;;;;;6274706;22;20042;-78
2022/06/08 07:20:10;;;;;;;0.65;0.47;;;23.20;64.40;;;;;;6275316;22;20000;-75
2022/06/08 07:22:37;;;;;;;0.22;0.10;;;23.20;63.10;;;;;;6274729;22;19999;-76
2022/06/08 07:25:05;;;;;;;1.17;0.35;;;23.20;64.50;;;;;;6272250;22;20000;-76
2022/06/08 07:27:30;;;;;;;0.80;0.30;;;23.40;64.40;;;;;;6273195;22;20027;-77
2022/06/08 07:29:56;;;;;;;0.25;0.25;;;23.30;63.20;;;;;;6273289;22;20026;-78
2022/06/08 07:32:21;;;;;;;0.95;0.40;;;23.40;64.00;;;;;;6274429;22;20010;-78
2022/06/08 07:34:47;;;;;;;0.77;0.30;;;23.50;62.90;;;;;;6273787;22;19995;-78
2022/06/08 07:37:13;;;;;;;0.43;0.30;;;23.40;62.30;;;;;;6273521;22;20000;-78
2022/06/08 07:39:39;;;;;;;0.38;0.30;;;23.50;63.30;;;;;;6274432;22;20003;-78
2022/06/08 07:42:05;;;;;;;0.90;0.30;;;23.60;63.50;;;;;;6274368;22;20044;-77
2022/06/08 07:44:31;;;;;;;0.30;0.20;;;23.70;63.50;;;;;;6274795;22;20095;-78
2022/06/08 07:46:57;;;;;;;1.30;0.30;;;23.80;63.50;;;;;;6274057;22;20418;-77
2022/06/08 07:49:36;;;;;;;0.30;0.20;;;23.80;63.00;;;;;;6274508;22;20012;-77
2022/06/08 07:52:08;;;;;;;0.60;0.30;;;23.80;62.90;;;;;;6276182;22;20379;-78
2022/06/08 07:54:34;;;;;;;0.70;0.40;;;23.90;62.90;;;;;;6275217;22;20422;-78
2022/06/08 07:57:01;;;;;;;1.30;0.40;;;24.00;62.50;;;;;;6274873;22;20000;-78
2022/06/08 07:59:31;;;;;;;0.93;0.40;;;24.10;62.50;;;;;;6274624;22;20004;-78
2022/06/08 08:01:58;;;;;;;1.63;0.60;;;24.10;61.90;;;;;;6274763;22;19996;-78
2022/06/08 08:04:24;;;;;;;0.85;0.40;;;24.20;62.00;;;;;;6247794;22;20007;-78
2022/06/08 08:06:50;;;;;;;0.98;0.38;;;24.30;62.90;;;;;;6274966;22;20053;-78
2022/06/08 08:09:22;;;;;;;1.20;0.50;;;24.40;63.00;;;;;;6275128;22;20082;-79
2022/06/08 08:11:51;;;;;;;0.50;0.45;;;24.40;63.10;;;;;;6275388;22;20057;-78
2022/06/08 08:14:23;;;;;;;1.23;0.30;;;24.50;63.20;;;;;;6246674;22;20029;-77
2022/06/08 08:16:49;;;;;;;0.80;0.20;;;24.50;63.00;;;;;;6274098;22;20039;-77
2022/06/08 08:19:18;;;;;;;1.13;0.40;;;24.60;60.90;;;;;;6247220;22;19999;-75
2022/06/08 08:21:45;;;;;;;2.63;0.52;;;24.60;60.20;;;;;;6274818;22;19995;-76
2022/06/08 08:24:11;;;;;;;1.00;0.43;;;24.70;60.90;;;;;;6275285;22;20430;-77
2022/06/08 08:26:37;;;;;;;0.60;0.40;;;24.70;61.20;;;;;;6274399;22;20004;-75
2022/06/08 08:29:04;;;;;;;0.40;0.38;;;24.70;59.10;;;;;;6274769;22;20076;-77
2022/06/08 08:31:31;;;;;;;0.90;0.60;;;24.80;60.30;;;;;;6274133;22;20031;-79
2022/06/08 08:33:57;;;;;;;0.70;0.22;;;24.90;60.50;;;;;;6273655;22;20434;-78
2022/06/08 08:36:23;;;;;;;0.57;0.22;;;25.00;58.70;;;;;;6275271;22;20012;-77
2022/06/08 08:38:49;;;;;;;0.90;0.30;;;25.00;58.40;;;;;;6274832;22;20460;-77
2022/06/08 08:44:27;;;;;;;0.63;0.30;;;25.10;59.40;;;;;;6275952;22;20019;-77
2022/06/08 08:47:25;;;;;;;1.27;0.30;;;25.20;59.10;;;;;;6274273;22;20302;-77
2022/06/08 08:49:59;;;;;;;13.65;0.50;;;25.20;58.60;;;;;;6210905;22;20008;-77
2022/06/08 08:52:45;;;;;;;1.17;0.30;;;25.30;59.80;;;;;;6275828;22;20085;-78
2022/06/08 08:55:23;;;;;;;0.95;0.47;;;25.30;59.80;;;;;;6276061;22;20004;-77
2022/06/08 08:58:14;;;;;;;0.30;0.10;;;25.40;59.40;;;;;;6275311;22;20035;-77
2022/06/08 09:01:13;;;;;;;0.20;0.20;;;25.40;58.70;;;;;;6275504;22;20006;-77
2022/06/08 09:03:43;;;;;;;0.20;0.20;;;25.50;58.50;;;;;;6247728;22;20379;-77
2022/06/08 09:06:20;;;;;;;1.75;0.30;;;25.60;58.70;;;;;;6274042;22;20393;-77
2022/06/08 09:08:49;;;;;;;2.35;0.50;;;25.60;57.80;;;;;;6273312;22;20063;-76
2022/06/08 09:11:36;;;;;;;0.25;0.22;;;25.70;58.60;;;;;;6273948;22;20006;-76
2022/06/08 09:14:11;;;;;;;1.40;0.30;;;25.70;57.90;;;;;;6272760;22;20002;-77
2022/06/08 09:16:43;;;;;;;0.70;0.22;;;25.80;58.60;;;;;;6275348;22;20057;-76
2022/06/08 09:19:21;;;;;;;4.15;0.50;;;25.80;58.80;;;;;;6271812;22;19996;-76
2022/06/08 09:21:54;;;;;;;0.43;0.20;;;25.80;56.30;;;;;;6275378;22;20338;-76
2022/06/08 09:24:41;;;;;;;0.75;0.40;;;25.80;57.90;;;;;;6274993;22;20003;-75
2022/06/08 09:27:24;;;;;;;0.45;0.30;;;25.90;57.70;;;;;;6275097;22;19999;-77
2022/06/08 09:29:56;;;;;;;1.77;0.20;;;25.90;56.50;;;;;;6273864;22;20338;-78
2022/06/08 09:32:32;;;;;;;0.73;0.30;;;26.00;56.90;;;;;;6275266;22;20094;-77
2022/06/08 09:35:03;;;;;;;1.98;0.70;;;26.10;57.90;;;;;;6275446;22;20018;-77
2022/06/08 09:37:30;;;;;;;1.17;0.90;;;26.20;58.10;;;;;;6244345;22;20031;-77
2022/06/08 09:39:59;;;;;;;0.50;0.43;;;26.30;57.30;;;;;;6275083;22;20023;-78
2022/06/08 09:42:53;;;;;;;1.23;0.43;;;26.40;57.40;;;;;;6274090;22;20069;-77
2022/06/08 09:45:43;;;;;;;3.15;0.70;;;26.50;56.80;;;;;;6275661;22;20004;-77
2022/06/08 09:51:49;;;;;;;0.93;0.35;;;26.70;54.00;;;;;;6274251;22;20019;-77
2022/06/08 09:54:33;;;;;;;0.52;0.30;;;26.70;55.50;;;;;;6246957;22;20438;-77
2022/06/08 09:57:13;;;;;;;0.82;0.30;;;26.80;55.50;;;;;;6275389;22;20011;-77
2022/06/08 09:59:47;;;;;;;0.40;0.30;;;26.90;53.00;;;;;;6274754;22;20030;-76
2022/06/08 10:02:52;;;;;;;0.70;0.40;;;27.00;54.80;;;;;;6247627;22;20427;-77
2022/06/08 10:05:36;;;;;;;0.68;0.30;;;27.10;53.60;;;;;;6273793;22;20008;-76
2022/06/08 10:08:16;;;;;;;0.68;0.25;;;27.10;53.20;;;;;;6274040;22;20004;-77
2022/06/08 10:11:41;;;;;;;1.25;0.43;;;27.20;53.50;;;;;;6247269;22;20299;-77
2022/06/08 10:14:10;;;;;;;1.13;0.52;;;27.30;54.10;;;;;;6274251;22;20049;-77
2022/06/08 10:19:14;;;;;;;1.77;0.75;;;27.50;53.20;;;;;;6250260;23;20024;-96
2022/06/08 10:21:48;;;;;;;2.47;1.10;;;27.60;52.70;;;;;;6231617;23;20016;-96
2022/06/08 10:27:02;;;;;;;0.73;0.43;;;27.80;52.90;;;;;;6181162;23;20452;-80
2022/06/08 10:29:35;;;;;;;1.08;0.57;;;27.90;53.00;;;;;;6183242;23;20107;-80
2022/06/08 10:32:04;;;;;;;2.15;0.60;;;28.00;52.90;;;;;;6183509;23;20087;-80
2022/06/08 10:34:33;;;;;;;0.93;0.30;;;28.00;51.80;;;;;;6183460;23;20076;-80
2022/06/08 10:37:14;;;;;;;0.65;0.35;;;28.10;52.10;;;;;;6183173;23;20323;-82
2022/06/08 10:39:41;;;;;;;1.08;0.52;;;28.30;52.20;;;;;;6182154;23;20082;-81
2022/06/08 10:42:46;;;;;;;0.63;0.30;;;28.40;51.80;;;;;;6184394;23;20009;-81
2022/06/08 10:45:23;;;;;;;0.98;0.40;;;28.50;51.40;;;;;;6158762;23;20012;-81
2022/06/08 10:48:03;;;;;;;2.25;0.38;;;28.70;50.90;;;;;;6185300;23;20008;-81
2022/06/08 10:50:32;;;;;;;0.28;0.28;;;28.80;49.50;;;;;;6183822;23;20106;-80
2022/06/08 10:55:45;;;;;;;0.47;0.40;;;29.00;48.10;;;;;;6185181;23;20100;-79
2022/06/08 10:58:13;;;;;;;0.85;0.50;;;29.10;49.00;;;;;;6157905;23;20005;-81
2022/06/08 11:01:01;;;;;;;1.05;0.40;;;29.30;48.70;;;;;;6184612;23;20089;-81
2022/06/08 11:03:42;;;;;;;0.65;0.30;;;29.40;48.10;;;;;;6184814;23;20004;-79
2022/06/08 11:06:10;;;;;;;0.45;0.30;;;29.50;48.00;;;;;;6182200;23;20382;-81
2022/06/08 11:08:51;;;;;;;0.93;0.60;;;29.60;47.20;;;;;;6182597;23;20011;-81
2022/06/08 11:11:37;;;;;;;0.70;0.30;;;29.70;47.90;;;;;;6181393;23;20055;-81
2022/06/08 11:14:28;;;;;;;0.45;0.30;;;29.80;46.80;;;;;;6183516;23;20004;-81
2022/06/08 11:16:59;;;;;;;2.50;0.50;;;29.90;48.50;;;;;;6183285;23;20004;-80
2022/06/08 11:19:27;;;;;;;0.70;0.30;;;30.00;47.80;;;;;;6176012;23;20005;-81
2022/06/08 11:22:02;;;;;;;1.13;0.50;;;30.10;46.90;;;;;;6182808;23;20008;-80
2022/06/08 11:25:00;;;;;;;0.88;0.43;;;30.20;48.00;;;;;;6182729;23;20442;-80
2022/06/08 11:27:37;;;;;;;0.93;0.43;;;30.50;47.70;;;;;;6159946;23;20084;-80
2022/06/08 11:30:22;;;;;;;2.35;0.70;;;30.80;45.40;;;;;;6182160;23;20278;-80
2022/06/08 11:32:51;;;;;;;0.93;0.50;;;31.20;46.80;;;;;;6183099;23;20005;-79
2022/06/08 11:35:46;;;;;;;0.65;0.40;;;31.70;45.50;;;;;;6184218;23;20001;-79
2022/06/08 11:38:43;;;;;;;1.25;0.50;;;32.00;44.00;;;;;;6184298;23;20001;-80
2022/06/08 11:41:32;;;;;;;0.50;0.45;;;32.30;42.40;;;;;;6183743;23;20371;-78
2022/06/08 11:44:09;;;;;;;0.30;0.30;;;32.60;42.60;;;;;;6185419;23;19997;-80
2022/06/08 11:46:39;;;;;;;2.90;0.47;;;32.80;42.80;;;;;;6184802;23;20004;-79
2022/06/08 11:49:25;;;;;;;0.75;0.50;;;33.00;43.00;;;;;;6183953;23;20397;-79
2022/06/08 11:51:51;;;;;;;0.77;0.32;;;33.20;43.60;;;;;;6183817;23;20477;-80
2022/06/08 11:54:22;;;;;;;0.90;0.50;;;33.50;42.40;;;;;;6184710;23;20035;-80
2022/06/08 11:57:09;;;;;;;0.50;0.40;;;33.70;42.60;;;;;;6158172;23;20051;-80
2022/06/08 11:59:38;;;;;;;0.80;0.50;;;33.80;40.70;;;;;;6182331;23;19997;-80
2022/06/08 12:02:20;;;;;;;0.52;0.45;;;33.90;40.40;;;;;;6182724;23;20399;-81
2022/06/08 12:04:52;;;;;;;0.73;0.30;;;33.80;41.00;;;;;;6182484;23;20028;-80
2022/06/08 12:07:53;;;;;;;1.92;0.35;;;33.90;40.90;;;;;;6182593;23;20001;-80
2022/06/08 12:10:23;;;;;;;0.50;0.40;;;33.90;39.10;;;;;;6154787;23;20005;-79
2022/06/08 12:12:49;;;;;;;0.80;0.50;;;33.90;40.70;;;;;;6183434;23;20442;-80
2022/06/08 12:15:48;;;;;;;0.73;0.35;;;33.80;37.90;;;;;;6177323;23;20367;-80
2022/06/08 12:18:37;;;;;;;0.32;0.32;;;33.90;39.20;;;;;;6183488;23;20286;-81
2022/06/08 12:21:28;;;;;;;2.10;0.57;;;33.80;37.90;;;;;;6182962;23;20047;-80
2022/06/08 12:23:59;;;;;;;2.60;0.50;;;33.70;38.80;;;;;;6183355;23;20005;-80
2022/06/08 12:26:27;;;;;;;1.23;0.38;;;33.80;38.70;;;;;;6182782;23;20447;-81
2022/06/08 12:29:23;;;;;;;0.57;0.40;;;34.00;37.80;;;;;;6184132;23;20001;-81
2022/06/08 12:32:06;;;;;;;1.27;0.28;;;34.20;37.70;;;;;;6183222;23;20012;-81
2022/06/08 12:34:39;;;;;;;0.47;0.30;;;34.20;36.20;;;;;;6157455;23;20009;-81
2022/06/08 12:37:34;;;;;;;1.38;0.40;;;34.20;36.90;;;;;;6179539;23;20005;-80
2022/06/08 12:40:25;;;;;;;1.55;0.47;;;34.10;37.60;;;;;;6153324;23;20442;-80
2022/06/08 12:43:18;;;;;;;5.15;1.67;;;34.20;37.20;;;;;;6154503;23;20033;-81
2022/06/08 12:46:06;;;;;;;1.40;0.73;;;34.10;37.10;;;;;;6154536;23;20414;-80
2022/06/08 12:48:37;;;;;;;0.77;0.40;;;33.80;36.60;;;;;;6183113;23;20013;-80
2022/06/08 12:51:24;;;;;;;1.30;0.63;;;33.70;37.40;;;;;;6183408;23;20005;-81
2022/06/08 12:53:50;;;;;;;1.40;0.65;;;33.50;37.00;;;;;;6183492;23;20001;-80
2022/06/08 12:56:19;;;;;;;0.30;0.30;;;33.40;37.60;;;;;;6183844;23;19997;-80
2022/06/08 12:58:46;;;;;;;0.65;0.30;;;33.20;37.70;;;;;;6157934;23;20001;-80
2022/06/08 13:01:13;;;;;;;0.95;0.40;;;33.20;37.10;;;;;;6184790;23;20011;-80
2022/06/08 13:03:40;;;;;;;1.00;0.40;;;33.10;37.40;;;;;;6184736;23;20491;-79
2022/06/08 13:06:07;;;;;;;0.43;0.40;;;33.00;38.40;;;;;;6183188;23;20481;-80
2022/06/08 13:08:34;;;;;;;1.00;0.63;;;32.90;38.40;;;;;;6183762;23;20465;-80
2022/06/08 13:11:04;;;;;;;1.27;0.55;;;32.80;38.00;;;;;;6157688;23;20012;-81
2022/06/08 13:13:33;;;;;;;1.40;0.52;;;32.80;38.30;;;;;;6157061;23;20378;-81
2022/06/08 13:16:01;;;;;;;0.30;0.30;;;32.70;37.60;;;;;;6185035;23;19997;-81
2022/06/08 13:18:28;;;;;;;2.60;0.77;;;32.80;37.30;;;;;;6185411;23;20032;-78
2022/06/08 13:20:56;;;;;;;0.43;0.32;;;32.70;37.10;;;;;;6185665;23;20001;-81
2022/06/08 13:23:23;;;;;;;0.88;0.50;;;32.70;35.50;;;;;;6184768;23;20005;-80
2022/06/08 13:25:51;;;;;;;0.55;0.55;;;32.70;35.60;;;;;;6185528;23;20043;-80
2022/06/08 13:28:24;;;;;;;1.10;0.30;;;32.70;36.10;;;;;;6185791;23;20008;-80
2022/06/08 13:30:52;;;;;;;0.77;0.50;;;32.60;36.80;;;;;;6186106;23;20071;-81
2022/06/08 13:36:31;;;;;;;0.88;0.30;;;32.50;37.30;;;;;;6185238;23;20347;-80